Time;durP1;ratioP1;P1;durP2;ratioP2;P2;SDS_P1;SDS_P2;PMS_P1;PMS_P2;Temp;Humidity;BMP_temperature;BMP_pressure;BME280_temperature;BME280_humidity;BME280_pressure;Samples;Min_cycle;Max_cycle;Signal;HPM_P1;HPM_P2
2021/12/04 00:01:51;;;;;;;12.15;9.20;;;;;;;0.07;86.63;99789.53;7400951;19;20018;-70
2021/12/04 00:04:24;;;;;;;13.32;9.05;;;;;;;-0.05;87.73;99777.44;7397323;19;20031;-70
2021/12/04 00:06:52;;;;;;;12.02;9.40;;;;;;;-0.05;87.63;99777.44;7400521;19;20019;-70
2021/12/04 00:09:29;;;;;;;13.45;9.65;;;;;;;-0.06;88.08;99791.19;7400264;19;20043;-70
2021/12/04 00:11:59;;;;;;;16.73;10.07;;;;;;;-0.21;87.65;99771.31;7400390;19;20033;-70
2021/12/04 00:14:30;;;;;;;16.15;9.30;;;;;;;-0.14;88.67;99790.25;7397711;19;20037;-70
2021/12/04 00:17:06;;;;;;;12.30;9.85;;;;;;;-0.19;88.90;99790.25;7396636;19;20014;-70
2021/12/04 00:19:40;;;;;;;17.65;10.93;;;;;;;-0.26;89.01;99787.63;7400798;19;20027;-70
2021/12/04 00:22:09;;;;;;;14.43;9.93;;;;;;;-0.24;89.09;99791.94;7400018;19;20038;-70
2021/12/04 00:24:38;;;;;;;16.27;10.60;;;;;;;-0.26;89.77;99788.47;7399213;19;20018;-70
2021/12/04 00:27:06;;;;;;;17.40;10.25;;;;;;;-0.28;89.74;99785.00;7408613;19;20014;-70
2021/12/04 00:29:37;;;;;;;16.15;10.07;;;;;;;-0.29;90.89;99785.91;7407417;19;20011;-70
2021/12/04 00:32:11;;;;;;;17.48;10.35;;;;;;;-0.29;90.26;99791.03;7404591;19;20054;-70
2021/12/04 00:34:42;;;;;;;14.00;10.38;;;;;;;-0.29;90.55;99785.00;7398097;19;20035;-70
2021/12/04 00:50:42;;;;;;;13.60;10.38;;;;;;;-0.37;91.68;99783.25;7412013;19;20009;-71
2021/12/04 00:53:10;;;;;;;17.15;10.25;;;;;;;-0.36;91.38;99781.53;7411408;19;20038;-70
2021/12/04 00:55:39;;;;;;;18.67;11.93;;;;;;;-0.36;91.22;99779.81;7407872;19;20011;-71
2021/12/04 00:58:07;;;;;;;15.52;10.30;;;;;;;-0.37;92.55;99785.84;7396107;19;20021;-71
2021/12/04 01:00:37;;;;;;;16.73;10.63;;;;;;;-0.36;91.88;99776.38;7398768;19;20014;-71
2021/12/04 01:03:06;;;;;;;16.45;10.38;;;;;;;-0.36;92.34;99774.66;7395816;19;20042;-70
2021/12/04 01:05:34;;;;;;;17.05;11.88;;;;;;;-0.37;92.26;99769.50;7397868;19;20585;-71
2021/12/04 01:08:02;;;;;;;17.45;10.77;;;;;;;-0.37;92.35;99772.94;7398107;19;20018;-70
2021/12/04 01:10:30;;;;;;;16.92;10.30;;;;;;;-0.36;93.32;99778.97;7398062;19;20019;-70
2021/12/04 01:13:01;;;;;;;17.63;10.85;;;;;;;-0.41;92.94;99766.03;7398072;19;20388;-71
2021/12/04 01:15:30;;;;;;;17.00;11.68;;;;;;;-0.36;93.08;99772.06;7398266;19;20041;-71
2021/12/04 01:18:01;;;;;;;16.23;11.85;;;;;;;-0.35;93.36;99770.38;7395815;19;20010;-71
2021/12/04 01:20:29;;;;;;;18.88;11.10;;;;;;;-0.36;93.30;99771.22;7398278;19;20015;-71
2021/12/04 01:22:57;;;;;;;18.67;11.13;;;;;;;-0.37;93.93;99766.91;7397520;19;20011;-71
2021/12/04 01:25:25;;;;;;;17.08;11.25;;;;;;;-0.34;93.75;99765.22;7395444;19;20014;-71
2021/12/04 01:27:54;;;;;;;17.15;11.48;;;;;;;-0.33;93.89;99755.78;7397609;19;20025;-71
2021/12/04 01:30:22;;;;;;;15.82;10.65;;;;;;;-0.31;93.87;99764.38;7397647;19;20027;-71
2021/12/04 01:32:50;;;;;;;18.50;10.27;;;;;;;-0.30;94.21;99760.09;7399514;19;20115;-71
2021/12/04 01:35:21;;;;;;;19.27;11.13;;;;;;;-0.30;94.54;99760.09;7398166;19;20018;-71
2021/12/04 01:37:49;;;;;;;19.02;11.43;;;;;;;-0.29;94.58;99756.66;7397876;19;20011;-72
2021/12/04 01:40:17;;;;;;;19.75;12.77;;;;;;;-0.28;95.38;99755.81;7395527;19;20015;-71
2021/12/04 01:42:46;;;;;;;21.25;12.93;;;;;;;-0.30;94.74;99748.06;7395831;19;20018;-72
2021/12/04 01:45:14;;;;;;;16.10;11.50;;;;;;;-0.27;95.28;99745.50;7394998;19;20022;-72
2021/12/04 01:47:43;;;;;;;16.75;11.57;;;;;;;-0.26;95.25;99754.13;7395060;19;20022;-72
2021/12/04 01:50:12;;;;;;;20.70;13.27;;;;;;;-0.28;95.24;99741.19;7396649;19;20114;-72
2021/12/04 01:52:42;;;;;;;21.13;13.13;;;;;;;-0.27;95.63;99744.66;7396580;19;20050;-71
2021/12/04 01:55:11;;;;;;;19.30;11.77;;;;;;;-0.28;95.45;99735.19;7394986;19;20022;-71
2021/12/04 01:57:39;;;;;;;21.15;12.80;;;;;;;-0.26;95.34;99739.50;7395406;19;20022;-71
2021/12/04 02:00:09;;;;;;;23.85;13.35;;;;;;;-0.24;95.70;99736.94;7396350;19;20020;-72
2021/12/04 02:02:39;;;;;;;21.85;13.35;;;;;;;-0.27;95.71;99737.75;7396230;19;20018;-72
2021/12/04 02:05:08;;;;;;;20.83;12.65;;;;;;;-0.23;96.02;99738.66;7394277;19;20484;-71
2021/12/04 02:07:36;;;;;;;20.52;12.93;;;;;;;-0.23;96.10;99733.50;7396768;19;20022;-72
2021/12/04 02:10:09;;;;;;;22.80;13.02;;;;;;;-0.21;95.92;99734.38;7396325;19;20130;-71
2021/12/04 02:15:06;;;;;;;18.52;12.10;;;;;;;-0.20;95.98;99731.81;7391026;19;20014;-67
2021/12/04 02:17:35;;;;;;;23.50;12.40;;;;;;;-0.22;95.99;99724.91;7394523;19;20029;-67
2021/12/04 02:20:03;;;;;;;20.85;12.20;;;;;;;-0.19;96.07;99727.50;7396345;19;20035;-67
2021/12/04 02:22:34;;;;;;;22.17;12.30;;;;;;;-0.19;96.24;99727.50;7394378;19;20010;-67
2021/12/04 02:25:02;;;;;;;21.52;12.15;;;;;;;-0.20;96.29;99724.06;7394771;19;20015;-66
2021/12/04 02:27:30;;;;;;;20.02;13.85;;;;;;;-0.18;96.28;99726.66;7396073;19;20417;-67
2021/12/04 02:29:58;;;;;;;19.35;11.85;;;;;;;-0.19;96.45;99725.81;7395960;19;20014;-67
2021/12/04 02:32:28;;;;;;;21.30;12.68;;;;;;;-0.18;96.76;99726.66;7395432;19;20371;-68
2021/12/04 02:34:56;;;;;;;23.23;11.85;;;;;;;-0.18;96.49;99724.06;7394074;19;20070;-68
2021/12/04 02:37:24;;;;;;;17.27;11.50;;;;;;;-0.18;96.76;99717.22;7394735;19;20476;-68
2021/12/04 02:39:59;;;;;;;20.60;11.98;;;;;;;-0.18;96.68;99714.63;7395643;19;20022;-68
2021/12/04 02:42:30;;;;;;;21.08;12.25;;;;;;;-0.18;96.96;99709.47;7392910;19;20021;-68
2021/12/04 02:45:00;;;;;;;20.15;12.20;;;;;;;-0.18;96.99;99708.59;7392880;19;20019;-68
2021/12/04 02:47:29;;;;;;;19.23;11.52;;;;;;;-0.20;96.77;99702.59;7393843;19;20019;-68
2021/12/04 02:49:58;;;;;;;18.08;11.23;;;;;;;-0.20;96.82;99703.44;7395431;19;20018;-67
2021/12/04 02:52:27;;;;;;;21.38;12.13;;;;;;;-0.21;96.64;99695.72;7395293;19;20029;-68
2021/12/04 02:54:58;;;;;;;19.70;11.13;;;;;;;-0.22;96.87;99692.25;7393505;19;20381;-68
2021/12/04 02:57:27;;;;;;;17.95;11.82;;;;;;;-0.23;96.46;99700.88;7393084;19;20483;-68
2021/12/04 02:59:56;;;;;;;20.77;11.50;;;;;;;-0.23;96.62;99692.25;7393440;19;20364;-68
2021/12/04 03:02:25;;;;;;;16.80;11.32;;;;;;;-0.24;96.58;99682.78;7394739;19;20372;-68
2021/12/04 03:04:58;;;;;;;20.08;10.63;;;;;;;-0.25;96.77;99678.47;7393083;19;20023;-68
2021/12/04 03:07:27;;;;;;;16.60;10.60;;;;;;;-0.25;96.99;99681.06;7395394;19;20011;-69
2021/12/04 03:09:57;;;;;;;18.52;11.77;;;;;;;-0.26;96.94;99675.06;7394894;19;20026;-68
2021/12/04 03:12:27;;;;;;;20.20;10.77;;;;;;;-0.25;96.90;99681.06;7395218;19;20019;-68
2021/12/04 03:14:56;;;;;;;18.83;11.73;;;;;;;-0.26;97.25;99671.63;7393127;19;20034;-68
2021/12/04 03:17:26;;;;;;;20.35;11.10;;;;;;;-0.33;97.08;99660.41;7394216;19;20024;-68
2021/12/04 03:19:54;;;;;;;19.02;11.20;;;;;;;-0.27;96.84;99665.59;7394620;19;20022;-68
2021/12/04 03:22:24;;;;;;;16.45;10.80;;;;;;;-0.26;97.03;99667.31;7394545;19;20032;-68
2021/12/04 03:24:55;;;;;;;17.63;10.70;;;;;;;-0.27;97.19;99660.44;7392351;19;20019;-68
2021/12/04 03:27:29;;;;;;;21.60;10.85;;;;;;;-0.28;96.87;99665.59;7395649;19;20022;-68
2021/12/04 03:29:59;;;;;;;22.40;10.98;;;;;;;-0.29;97.42;99658.69;7394375;19;20380;-68
2021/12/04 03:40:59;;;;;;;22.05;11.32;;;;;;;-0.34;97.66;99656.13;7389723;19;20011;-69
2021/12/04 03:43:30;;;;;;;21.73;11.13;;;;;;;-0.34;97.23;99656.97;7393335;19;20015;-68
2021/12/04 03:46:00;;;;;;;20.27;11.55;;;;;;;-0.34;97.33;99644.09;7391909;19;20042;-68
2021/12/04 03:51:10;;;;;;;18.27;11.85;;;;;;;-0.32;97.54;99638.94;7393934;19;20356;-68
2021/12/04 03:53:38;;;;;;;27.85;12.23;;;;;;;-0.32;97.61;99638.94;7392740;19;20018;-68
2021/12/04 03:56:09;;;;;;;20.67;12.05;;;;;;;-0.30;97.44;99642.38;7400496;19;20025;-68
2021/12/04 03:58:40;;;;;;;18.85;12.27;;;;;;;-0.29;97.58;99633.81;7399469;19;20014;-69
2021/12/04 04:01:08;;;;;;;25.60;13.13;;;;;;;-0.27;97.36;99633.81;7400516;19;20494;-68
2021/12/04 04:03:37;;;;;;;19.33;12.95;;;;;;;-0.26;97.41;99632.97;7399640;19;20018;-68
2021/12/04 04:06:05;;;;;;;20.20;12.93;;;;;;;-0.26;97.53;99628.66;7400646;19;20015;-68
2021/12/04 04:08:33;;;;;;;20.35;13.10;;;;;;;-0.25;97.59;99630.38;7400633;19;20028;-68
2021/12/04 04:11:02;;;;;;;21.58;13.23;;;;;;;-0.23;97.44;99625.22;7400012;19;20371;-68
2021/12/04 04:13:41;;;;;;;19.15;12.18;;;;;;;-0.22;97.54;99622.66;7398546;19;20050;-68
2021/12/04 04:16:17;;;;;;;22.30;12.40;;;;;;;-0.22;97.58;99625.22;7401811;19;20070;-69
2021/12/04 04:18:46;;;;;;;19.98;12.43;;;;;;;-0.22;97.76;99620.06;7398132;19;20015;-68
2021/12/04 04:21:14;;;;;;;19.08;12.20;;;;;;;-0.20;97.52;99617.53;7400155;19;20015;-68
2021/12/04 04:23:42;;;;;;;23.98;11.93;;;;;;;-0.20;97.86;99623.53;7398807;19;20018;-68
2021/12/04 04:26:10;;;;;;;20.80;12.02;;;;;;;-0.18;97.92;99623.53;7400035;19;20014;-69
2021/12/04 04:28:38;;;;;;;20.67;11.73;;;;;;;-0.19;97.64;99625.25;7399546;19;20362;-68
2021/12/04 04:31:08;;;;;;;21.75;12.68;;;;;;;-0.17;97.76;99620.94;7399952;19;20035;-68
2021/12/04 04:33:42;;;;;;;19.17;13.10;;;;;;;-0.15;97.81;99620.09;7398748;19;20019;-68
2021/12/04 04:36:21;;;;;;;19.57;12.83;;;;;;;-0.14;97.69;99621.81;7399245;19;20393;-68
2021/12/04 04:39:00;;;;;;;20.35;12.63;;;;;;;-0.13;97.62;99623.56;7397458;19;20548;-69
2021/12/04 05:00:33;;;;;;;27.75;12.98;;;;;;;-0.08;97.53;99611.53;7396063;19;20019;-69
2021/12/04 05:11:20;;;;;;;17.90;12.20;;;;;;;-0.08;97.69;99607.22;7398614;19;20011;-69
2021/12/04 05:13:48;;;;;;;18.67;11.50;;;;;;;-0.07;97.91;99603.81;7396775;19;20429;-68
2021/12/04 05:16:17;;;;;;;20.30;11.85;;;;;;;-0.07;97.73;99605.53;7396292;19;20374;-69
2021/12/04 05:18:55;;;;;;;18.42;12.70;;;;;;;-0.05;97.76;99599.53;7397095;19;20041;-68
2021/12/04 05:21:26;;;;;;;18.58;14.15;;;;;;;-0.04;97.83;99605.53;7398573;19;20014;-67
2021/12/04 05:23:57;;;;;;;18.17;11.95;;;;;;;-0.04;97.78;99598.66;7396178;19;20019;-68
2021/12/04 05:26:28;;;;;;;18.50;11.95;;;;;;;-0.02;97.79;99606.41;7398424;19;20019;-68
2021/12/04 05:28:59;;;;;;;17.63;11.55;;;;;;;-0.02;97.87;99601.25;7398426;19;20472;-69
2021/12/04 05:31:27;;;;;;;16.63;11.05;;;;;;;-0.03;97.97;99605.53;7397605;19;20455;-68
2021/12/04 05:33:55;;;;;;;18.75;11.88;;;;;;;-0.04;97.93;99602.94;7395581;19;20032;-68
2021/12/04 05:36:26;;;;;;;19.42;11.85;;;;;;;-0.03;98.12;99613.25;7397711;19;20023;-69
2021/12/04 05:38:55;;;;;;;15.43;11.35;;;;;;;-0.02;97.76;99604.66;7395985;19;20483;-67
2021/12/04 05:41:24;;;;;;;16.60;11.38;;;;;;;-0.02;97.84;99608.97;7397284;19;20014;-67
2021/12/04 05:43:52;;;;;;;16.00;10.88;;;;;;;-0.03;97.93;99609.84;7396356;19;20018;-67
2021/12/04 05:46:22;;;;;;;17.40;10.25;;;;;;;-0.04;97.81;99608.09;7397376;19;20022;-67
2021/12/04 05:48:54;;;;;;;20.35;11.57;;;;;;;-0.04;97.76;99610.69;7395511;19;20046;-67
2021/12/04 05:51:37;;;;;;;17.00;11.45;;;;;;;-0.04;97.74;99603.84;7395534;19;20014;-68
2021/12/04 05:54:28;;;;;;;16.25;10.60;;;;;;;-0.05;97.97;99601.22;7396104;19;20018;-68
2021/12/04 05:56:57;;;;;;;16.60;10.88;;;;;;;-0.03;97.99;99604.69;7397336;19;20015;-68
2021/12/04 05:59:25;;;;;;;15.88;10.30;;;;;;;-0.04;97.92;99606.41;7394900;19;20462;-68
2021/12/04 06:01:53;;;;;;;24.08;11.10;;;;;;;-0.04;97.77;99598.66;7396593;19;20018;-68
2021/12/04 06:04:22;;;;;;;16.83;11.63;;;;;;;-0.03;97.77;99600.38;7395343;19;20047;-67
2021/12/04 06:06:50;;;;;;;26.88;16.20;;;;;;;-0.03;97.84;99599.53;7396628;19;20064;-68
2021/12/04 06:09:21;;;;;;;20.33;11.88;;;;;;;-0.03;98.05;99605.53;7396360;19;20014;-68
2021/12/04 06:11:49;;;;;;;17.10;10.02;;;;;;;-0.02;98.11;99602.09;7396111;19;20479;-68
2021/12/04 06:14:17;;;;;;;15.77;11.05;;;;;;;-0.02;97.89;99596.94;7394502;19;20014;-67
2021/12/04 06:16:45;;;;;;;20.58;11.00;;;;;;;-0.02;97.99;99603.81;7396498;19;20018;-66
2021/12/04 06:19:25;;;;;;;18.13;10.30;;;;;;;-0.01;97.73;99597.81;7394033;19;20031;-65
2021/12/04 06:24:41;;;;;;;17.27;10.73;;;;;;;0.00;98.01;99578.91;7392133;19;20030;-66
2021/12/04 06:27:09;;;;;;;14.10;9.82;;;;;;;-0.01;97.83;99578.03;7395685;19;20085;-66
2021/12/04 06:29:37;;;;;;;15.98;8.93;;;;;;;-0.01;97.75;99567.72;7395815;19;20095;-65
2021/12/04 06:32:06;;;;;;;13.63;8.77;;;;;;;-0.01;97.55;99569.44;7394883;19;20431;-65
2021/12/04 06:34:34;;;;;;;15.27;9.70;;;;;;;-0.01;97.87;99580.63;7393910;19;20018;-66
2021/12/04 06:37:02;;;;;;;13.60;8.50;;;;;;;-0.01;97.66;99585.78;7393651;19;20031;-66
2021/12/04 06:39:30;;;;;;;16.48;9.65;;;;;;;0.01;97.51;99585.78;7394233;19;20031;-66
2021/12/04 06:42:01;;;;;;;14.85;8.55;;;;;;;0.01;97.69;99590.06;7393757;19;20035;-66
2021/12/04 06:44:30;;;;;;;15.52;8.50;;;;;;;0.01;97.70;99585.78;7393338;19;20385;-66
2021/12/04 06:46:58;;;;;;;12.23;8.52;;;;;;;0.02;97.77;99584.91;7393739;19;20034;-66
2021/12/04 06:49:29;;;;;;;15.50;9.15;;;;;;;0.02;97.41;99596.97;7393647;19;20519;-66
2021/12/04 06:51:59;;;;;;;13.55;8.95;;;;;;;0.03;97.65;99591.81;7393396;19;20018;-66
2021/12/04 06:54:31;;;;;;;18.40;10.75;;;;;;;0.05;97.49;99586.66;7394061;19;20014;-66
2021/12/04 06:57:03;;;;;;;14.00;9.20;;;;;;;0.06;97.47;99576.31;7393977;19;20026;-66
2021/12/04 06:59:33;;;;;;;15.73;9.63;;;;;;;0.06;97.47;99581.47;7393661;19;20077;-67
2021/12/04 07:02:01;;;;;;;15.70;9.88;;;;;;;0.08;97.39;99587.50;7394952;19;20022;-66
2021/12/04 07:04:34;;;;;;;16.63;10.55;;;;;;;0.09;97.44;99583.19;7393073;19;20099;-66
2021/12/04 07:07:02;;;;;;;15.82;9.73;;;;;;;0.10;97.41;99585.81;7392714;19;20360;-66
2021/12/04 07:09:30;;;;;;;15.75;10.40;;;;;;;0.11;97.71;99574.63;7392554;19;20735;-66
2021/12/04 07:12:01;;;;;;;15.85;10.35;;;;;;;0.12;97.60;99562.59;7394690;19;20035;-66
2021/12/04 07:14:30;;;;;;;18.05;10.55;;;;;;;0.13;97.50;99567.75;7392608;19;20007;-67
2021/12/04 07:17:01;;;;;;;18.35;11.73;;;;;;;0.14;97.53;99561.75;7394237;19;20374;-66
2021/12/04 07:19:29;;;;;;;21.63;13.73;;;;;;;0.18;97.55;99569.47;7393685;19;20019;-66
2021/12/04 07:21:58;;;;;;;18.75;11.52;;;;;;;0.15;97.67;99560.88;7394270;19;20022;-66
2021/12/04 07:24:26;;;;;;;23.52;12.95;;;;;;;0.19;97.45;99569.50;7392471;19;20015;-67
2021/12/04 07:26:55;;;;;;;19.85;11.57;;;;;;;0.18;97.57;99557.44;7392144;19;20023;-67
2021/12/04 07:29:26;;;;;;;18.40;12.15;;;;;;;0.20;97.52;99554.88;7396279;19;20342;-67
2021/12/04 07:31:54;;;;;;;20.55;13.10;;;;;;;0.20;97.50;99549.72;7402141;19;20079;-67
2021/12/04 07:34:22;;;;;;;18.27;12.80;;;;;;;0.19;97.43;99546.28;7398718;19;20014;-67
2021/12/04 07:36:50;;;;;;;23.48;14.13;;;;;;;0.19;97.67;99546.28;7401580;19;20022;-66
2021/12/04 07:39:19;;;;;;;18.30;12.68;;;;;;;0.19;97.48;99545.41;7399938;19;20023;-68
2021/12/04 07:41:47;;;;;;;18.52;13.05;;;;;;;0.20;97.44;99544.53;7398430;19;20011;-68
2021/12/04 07:44:15;;;;;;;19.80;12.15;;;;;;;0.19;97.71;99551.44;7399508;19;20014;-69
2021/12/04 07:46:46;;;;;;;18.83;11.13;;;;;;;0.18;97.75;99549.72;7400836;19;20483;-69
2021/12/04 07:49:14;;;;;;;16.77;12.10;;;;;;;0.17;97.54;99558.31;7398152;19;20377;-69
2021/12/04 07:51:43;;;;;;;16.58;12.18;;;;;;;0.18;97.62;99554.00;7401049;19;20025;-68
2021/12/04 07:54:12;;;;;;;19.17;12.85;;;;;;;0.18;97.57;99556.56;7399152;19;20021;-68
2021/12/04 07:56:40;;;;;;;25.02;15.27;;;;;;;0.18;97.55;99556.56;7400973;19;20021;-67
2021/12/04 07:59:08;;;;;;;20.58;13.43;;;;;;;0.17;97.76;99549.72;7399655;19;20035;-66
2021/12/04 08:01:37;;;;;;;21.27;14.55;;;;;;;0.18;97.86;99554.00;7398323;19;20030;-67
2021/12/04 08:04:07;;;;;;;26.20;18.08;;;;;;;0.17;97.96;99552.28;7399001;19;20043;-67
2021/12/04 08:06:36;;;;;;;26.73;18.10;;;;;;;0.17;97.69;99555.72;7398796;19;20022;-68
2021/12/04 08:09:05;;;;;;;23.60;15.77;;;;;;;0.17;97.87;99565.19;7400521;19;20038;-67
2021/12/04 08:11:33;;;;;;;23.38;15.15;;;;;;;0.17;97.66;99571.19;7400301;19;20022;-67
2021/12/04 08:14:02;;;;;;;19.08;13.50;;;;;;;0.17;97.87;99575.50;7398186;19;20015;-67
2021/12/04 08:16:32;;;;;;;21.50;14.75;;;;;;;0.19;97.74;99578.94;7400516;19;20035;-67
2021/12/04 08:19:01;;;;;;;21.23;14.38;;;;;;;0.20;98.01;99572.94;7397703;19;20019;-67
2021/12/04 08:21:32;;;;;;;21.85;13.95;;;;;;;0.21;97.99;99574.66;7399919;19;20050;-67
2021/12/04 08:24:00;;;;;;;21.13;13.93;;;;;;;0.23;98.20;99570.34;7397600;19;20018;-67
2021/12/04 08:26:28;;;;;;;29.33;21.10;;;;;;;0.27;97.90;99574.66;7397190;19;20039;-67
2021/12/04 08:28:57;;;;;;;30.13;23.15;;;;;;;0.29;98.03;99573.81;7396903;19;20014;-67
2021/12/04 08:31:25;;;;;;;35.65;26.52;;;;;;;0.31;98.02;99568.63;7399217;19;20014;-67
2021/12/04 08:33:53;;;;;;;25.85;19.42;;;;;;;0.34;98.15;99568.63;7397892;19;20018;-67
2021/12/04 08:36:22;;;;;;;26.25;17.35;;;;;;;0.31;97.97;99556.59;7396725;19;20496;-67
2021/12/04 08:38:52;;;;;;;25.20;17.10;;;;;;;0.37;98.15;99563.50;7396686;19;20036;-67
2021/12/04 08:41:21;;;;;;;27.48;17.55;;;;;;;0.40;97.93;99565.22;7394236;19;20035;-67
2021/12/04 08:43:52;;;;;;;27.00;18.58;;;;;;;0.43;97.92;99575.53;7396160;19;20031;-67
2021/12/04 08:46:21;;;;;;;22.92;15.43;;;;;;;0.45;98.08;99576.41;7399414;19;20017;-67
2021/12/04 08:48:50;;;;;;;24.27;16.02;;;;;;;0.45;97.81;99574.66;7398957;19;20035;-67
2021/12/04 08:51:21;;;;;;;24.88;17.08;;;;;;;0.48;97.83;99572.09;7396425;19;20385;-67
2021/12/04 08:53:53;;;;;;;26.25;17.30;;;;;;;0.52;98.15;99582.41;7398451;19;20022;-67
2021/12/04 08:56:21;;;;;;;29.85;21.05;;;;;;;0.54;97.91;99580.69;7397463;19;20038;-67
2021/12/04 08:58:50;;;;;;;27.15;17.98;;;;;;;0.53;97.93;99582.44;7396522;19;20018;-67
2021/12/04 09:01:28;;;;;;;25.17;17.90;;;;;;;0.56;97.94;99587.59;7398563;19;20025;-67
2021/12/04 09:04:00;;;;;;;28.15;17.75;;;;;;;0.57;98.04;99594.47;7396411;19;20019;-67
2021/12/04 09:06:29;;;;;;;25.70;17.45;;;;;;;0.59;97.90;99594.47;7399173;19;20022;-67
2021/12/04 09:09:00;;;;;;;27.35;18.55;;;;;;;0.60;97.83;99601.34;7398688;19;20019;-67
2021/12/04 09:11:33;;;;;;;28.38;18.75;;;;;;;0.61;97.67;99597.94;7396878;19;20015;-67
2021/12/04 09:14:03;;;;;;;26.73;18.08;;;;;;;0.61;97.64;99597.94;7397037;19;20031;-68
2021/12/04 09:16:31;;;;;;;28.45;18.88;;;;;;;0.64;97.91;99600.50;7399472;19;20014;-67
2021/12/04 09:18:59;;;;;;;25.05;17.27;;;;;;;0.64;97.81;99605.66;7397547;19;20390;-67
2021/12/04 09:21:28;;;;;;;29.45;20.05;;;;;;;0.65;97.67;99604.78;7398242;19;20022;-67
2021/12/04 09:24:07;;;;;;;27.27;18.55;;;;;;;0.65;97.69;99595.31;7396706;19;20019;-67
2021/12/04 09:26:48;;;;;;;27.13;18.35;;;;;;;0.68;97.73;99606.53;7395709;19;20018;-67
2021/12/04 09:29:35;;;;;;;33.25;20.00;;;;;;;0.68;97.53;99601.34;7396372;19;20023;-67
2021/12/04 09:32:34;;;;;;;32.17;20.65;;;;;;;0.69;97.80;99603.09;7395683;19;20018;-67
2021/12/04 09:35:18;;;;;;;32.22;21.88;;;;;;;0.70;97.67;99604.81;7394886;19;20026;-68
2021/12/04 09:59:58;;;;;;;27.98;19.25;;;;;;;0.84;97.48;99579.84;7397267;19;20011;-68
2021/12/04 10:02:42;;;;;;;31.50;19.65;;;;;;;0.85;97.33;99576.41;7395084;19;20022;-68
2021/12/04 10:05:35;;;;;;;31.98;19.40;;;;;;;0.85;97.31;99580.69;7394478;19;20039;-67
2021/12/04 10:13:50;;;;;;;30.17;19.77;;;;;;;0.89;97.28;99560.03;7395631;19;20019;-67
2021/12/04 10:16:35;;;;;;;29.63;19.67;;;;;;;0.92;97.01;99565.22;7393903;19;20018;-67
2021/12/04 10:19:22;;;;;;;29.40;19.65;;;;;;;0.91;96.98;99552.28;7396596;19;20087;-67
2021/12/04 10:22:07;;;;;;;33.38;19.65;;;;;;;0.93;97.14;99554.00;7397869;19;20010;-68
2021/12/04 10:33:11;;;;;;;29.77;18.65;;;;;;;1.00;97.12;99529.03;7395941;19;19982;-68
2021/12/04 10:35:40;;;;;;;29.05;18.50;;;;;;;1.03;97.08;99521.25;7396097;19;20023;-69
2021/12/04 10:38:14;;;;;;;45.42;27.77;;;;;;;1.05;97.07;99516.97;7395578;19;20376;-68
2021/12/04 10:40:44;;;;;;;;;;;;;;;1.08;96.98;99516.09;7395564;19;20022;-68
2021/12/04 10:43:16;;;;;;;30.35;19.33;;;;;;;1.11;97.12;99521.22;7394369;19;19923;-67
2021/12/04 10:45:52;;;;;;;30.88;18.80;;;;;;;1.14;97.14;99514.34;7394076;19;20014;-68
2021/12/04 10:48:23;;;;;;;30.80;19.67;;;;;;;1.16;97.15;99510.91;7395292;19;20089;-67
2021/12/04 10:50:58;;;;;;;30.77;19.70;;;;;;;1.21;96.91;99509.16;7393315;19;20086;-68
2021/12/04 10:53:30;;;;;;;28.60;17.92;;;;;;;1.22;96.82;99501.38;7395055;19;20018;-67
2021/12/04 10:56:09;;;;;;;26.08;17.55;;;;;;;1.25;96.77;99497.94;7393496;19;20444;-68
2021/12/04 10:59:07;;;;;;;30.05;18.13;;;;;;;1.27;97.18;99489.31;7394752;19;20475;-68
2021/12/04 11:01:54;;;;;;;26.27;17.50;;;;;;;1.32;96.81;99483.28;7395159;19;20074;-68
2021/12/04 11:04:31;;;;;;;24.73;16.83;;;;;;;1.34;96.89;99472.06;7395112;19;20025;-68
2021/12/04 11:07:18;;;;;;;27.67;18.67;;;;;;;1.37;96.90;99484.13;7403528;19;20074;-68
2021/12/04 11:23:44;;;;;;;24.00;16.85;;;;;;;1.52;97.03;99441.84;7398466;19;20011;-66
2021/12/04 11:37:34;;;;;;;23.48;17.00;;;;;;;1.69;97.61;99447.75;7402000;19;20043;-67
2021/12/04 11:40:21;;;;;;;28.90;18.80;;;;;;;1.72;97.32;99442.56;7400529;19;20011;-67
2021/12/04 11:42:53;;;;;;;28.48;18.90;;;;;;;1.74;97.66;99440.81;7401611;19;20021;-68
2021/12/04 11:45:26;;;;;;;21.25;15.35;;;;;;;1.76;97.47;99433.91;7400961;19;20494;-68
2021/12/04 11:47:57;;;;;;;23.65;16.80;;;;;;;1.78;96.62;99436.47;7401655;19;20019;-68
2021/12/04 11:50:30;;;;;;;22.15;15.13;;;;;;;1.77;96.12;99435.63;7401671;19;20019;-67
2021/12/04 11:53:02;;;;;;;19.20;15.95;;;;;;;1.78;96.27;99432.19;7399118;19;20030;-67
2021/12/04 11:55:36;;;;;;;21.13;15.63;;;;;;;1.77;96.30;99421.84;7398892;19;20032;-68
2021/12/04 11:58:05;;;;;;;24.60;15.95;;;;;;;1.75;96.46;99416.66;7398844;19;20023;-67
2021/12/04 12:00:36;;;;;;;23.58;15.68;;;;;;;1.77;96.88;99416.69;7399564;19;20019;-68
2021/12/04 12:03:10;;;;;;;47.85;28.17;;;;;;;1.78;96.66;99410.63;7398500;19;20014;-67
2021/12/04 12:05:47;;;;;;;39.20;24.27;;;;;;;1.81;96.89;99409.75;7401339;19;20019;-68
2021/12/04 12:08:29;;;;;;;25.05;16.83;;;;;;;1.81;96.32;99409.75;7398568;19;20021;-68
2021/12/04 12:11:01;;;;;;;19.40;14.85;;;;;;;1.80;95.87;99403.72;7398576;19;20039;-68
2021/12/04 12:13:33;;;;;;;22.65;15.35;;;;;;;1.78;95.92;99406.31;7399679;19;20417;-67
2021/12/04 12:16:09;;;;;;;23.23;16.05;;;;;;;1.77;96.20;99407.19;7396687;19;20007;-67
2021/12/04 12:18:55;;;;;;;25.10;16.80;;;;;;;1.77;96.31;99409.78;7400997;19;20039;-68
2021/12/04 12:21:32;;;;;;;23.20;16.83;;;;;;;1.78;96.21;99418.38;7397679;19;20025;-67
2021/12/04 12:24:22;;;;;;;24.08;15.43;;;;;;;1.79;96.09;99413.22;7398671;19;20034;-68
2021/12/04 12:38:06;;;;;;;28.77;18.55;;;;;;;1.78;96.39;99403.75;7399614;19;20364;-68
2021/12/04 12:40:35;;;;;;;25.63;17.55;;;;;;;1.77;96.02;99404.59;7398202;19;20100;-68
2021/12/04 12:43:13;;;;;;;25.55;18.48;;;;;;;1.77;95.95;99399.44;7398185;19;20471;-67
2021/12/04 12:45:41;;;;;;;26.20;18.08;;;;;;;1.73;95.78;99397.75;7399035;19;20019;-67
2021/12/04 12:48:13;;;;;;;26.20;17.73;;;;;;;1.72;95.75;99396.03;7399084;19;20031;-67
2021/12/04 12:50:46;;;;;;;28.42;17.48;;;;;;;1.71;95.77;99396.88;7397092;19;20420;-67
2021/12/04 12:53:18;;;;;;;26.92;18.00;;;;;;;1.69;95.39;99396.03;7398772;19;20018;-68
2021/12/04 12:55:50;;;;;;;25.23;17.92;;;;;;;1.68;95.81;99396.91;7398971;19;20022;-68
2021/12/04 12:58:21;;;;;;;25.15;18.63;;;;;;;1.66;95.45;99401.22;7398894;19;20082;-67
2021/12/04 13:11:53;;;;;;;26.15;19.27;;;;;;;1.64;96.16;99413.31;7398749;19;20074;-67
2021/12/04 13:14:25;;;;;;;27.42;18.80;;;;;;;1.62;96.06;99400.41;7396153;19;20026;-67
2021/12/04 13:17:03;;;;;;;26.50;18.15;;;;;;;1.61;95.62;99396.09;7397699;19;20501;-67
2021/12/04 13:19:32;;;;;;;27.30;18.90;;;;;;;1.61;95.87;99396.09;7398407;19;20021;-67
2021/12/04 13:22:06;;;;;;;52.58;31.83;;;;;;;1.62;96.11;99395.22;7395484;19;20018;-66
2021/12/04 13:24:40;;;;;;;44.78;28.48;;;;;;;1.61;95.91;99385.75;7396301;19;20019;-68
2021/12/04 13:29:40;;;;;;;29.38;20.10;;;;;;;1.66;95.80;99375.38;7397178;19;20318;-67
2021/12/04 13:32:11;;;;;;;27.27;19.65;;;;;;;1.67;95.86;99368.47;7398104;19;20035;-67
2021/12/04 13:34:40;;;;;;;28.75;19.42;;;;;;;1.68;96.19;99371.06;7395399;19;20023;-67
2021/12/04 13:37:10;;;;;;;46.28;23.95;;;;;;;1.70;96.43;99368.47;7397405;19;20025;-67
2021/12/04 13:39:43;;;;;;;30.70;19.27;;;;;;;1.73;95.77;99368.41;7397107;19;20014;-67
2021/12/04 13:42:12;;;;;;;28.27;19.10;;;;;;;1.72;96.06;99359.81;7395908;19;20019;-67
2021/12/04 13:44:41;;;;;;;28.27;18.98;;;;;;;1.74;95.85;99362.38;7395406;19;20022;-67
2021/12/04 13:47:10;;;;;;;27.48;19.48;;;;;;;1.74;96.16;99358.06;7395215;19;20026;-67
2021/12/04 13:49:47;;;;;;;44.47;26.63;;;;;;;1.74;95.67;99357.22;7397056;19;20051;-67
2021/12/04 13:52:15;;;;;;;38.22;24.80;;;;;;;1.76;95.82;99369.25;7394676;19;20488;-67
2021/12/04 13:54:50;;;;;;;33.75;21.58;;;;;;;1.73;95.78;99356.38;7395082;19;20014;-67
2021/12/04 13:57:18;;;;;;;;;;;;;;;1.79;95.90;99360.63;7397964;19;20031;-67
2021/12/04 13:59:46;;;;;;;37.08;24.02;;;;;;;1.85;96.05;99351.97;7396526;19;19923;-67
2021/12/04 14:02:22;;;;;;;29.30;21.45;;;;;;;1.87;96.05;99351.09;7394486;19;20033;-67
2021/12/04 14:04:58;;;;;;;28.13;20.10;;;;;;;1.85;95.91;99346.78;7395189;19;20031;-67